| time (UTC) | temp F | wind direction | speed knots | gust knots | rain 1hr in | rain 24hr in | rain mn in | humidity % | barometer mb |
| 20260506211558 | 55 | 121 | 7.0 | 13.9 | 0.01 | 0.05 | 0.01 | 98 | 1007.1 |
| 20260506210117 | 55 | 141 | 7.8 | 13.0 | 0.01 | 0.05 | 0.01 | 97 | 1007.2 |
| 20260506204553 | 55 | 67 | 4.3 | 15.6 | 0.01 | 0.05 | 0.01 | 97 | 1007.4 |
| 20260506203138 | 56 | 89 | 9.6 | 19.1 | 0.01 | 0.05 | 0.01 | 96 | 1007.5 |
| 20260506201549 | 56 | 96 | 8.7 | 18.2 | 0.00 | 0.04 | 0.00 | 94 | 1007.7 |
| 20260506200048 | 56 | 37 | 10.4 | 22.6 | 0.00 | 0.04 | 0.00 | 94 | 1007.7 |
| 20260506194542 | 56 | 105 | 10.4 | 21.7 | 0.00 | 0.04 | 0.00 | 94 | 1007.7 |
| 20260506193039 | 56 | 87 | 8.7 | 16.5 | 0.00 | 0.04 | 0.00 | 93 | 1007.8 |
| 20260506191537 | 56 | 101 | 8.7 | 15.6 | 0.00 | 0.04 | 0.00 | 94 | 1008.1 |
| 20260506190046 | 56 | 66 | 7.8 | 24.3 | 0.01 | 0.04 | 0.00 | 94 | 1008.2 |
| 20260506184531 | 56 | 79 | 13.0 | 20.0 | 0.03 | 0.04 | 0.00 | 93 | 1008.4 |
| 20260506183031 | 56 | 67 | 9.6 | 0.0 | 0.00 | 0.00 | 0.00 | 94 | 1008.6 |
| 20260506183029 | 56 | 101 | 11.3 | 18.2 | 0.03 | 0.04 | 0.00 | 94 | 1008.6 |
| 20260506181528 | 56 | 70 | 9.6 | 21.7 | 0.04 | 0.04 | 0.00 | 95 | 1008.8 |
| 20260506180025 | 56 | 76 | 8.7 | 18.2 | 0.03 | 0.03 | 0.03 | 95 | 1009.1 |
| 20260506174521 | 56 | 65 | 7.0 | 19.1 | 0.01 | 0.01 | 0.01 | 94 | 1009.2 |
| 20260506173021 | 56 | 58 | 7.8 | 19.1 | 0.01 | 0.01 | 0.01 | 94 | 1009.5 |
| 20260506171519 | 56 | 92 | 7.8 | 20.0 | 0.00 | 0.00 | 0.00 | 93 | 1009.6 |
| 20260506170021 | 57 | 78 | 8.7 | 21.7 | 0.00 | 0.00 | 0.00 | 91 | 1009.9 |
| 20260506164514 | 57 | 100 | 12.2 | 21.7 | 0.00 | 0.00 | 0.00 | 91 | 1010.1 |
| 20260506163022 | 57 | 54 | 7.8 | 20.0 | 0.00 | 0.00 | 0.00 | 90 | 1010.0 |
| 20260506161512 | 57 | 74 | 8.7 | 23.5 | 0.00 | 0.00 | 0.00 | 91 | 1010.0 |
| 20260506160010 | 57 | 108 | 8.7 | 20.0 | 0.00 | 0.00 | 0.00 | 90 | 1010.2 |
| 20260506154547 | 58 | 83 | 8.7 | 21.7 | 0.00 | 0.00 | 0.00 | 90 | 1010.4 |
| 20260506153038 | 58 | 77 | 9.6 | 20.9 | 0.00 | 0.00 | 0.00 | 90 | 1010.6 |
| 20260506151541 | 58 | 87 | 12.2 | 20.9 | 0.00 | 0.00 | 0.00 | 90 | 1010.6 |
| 20260506150035 | 57 | 106 | 9.6 | 17.4 | 0.00 | 0.00 | 0.00 | 90 | 1010.5 |
| 20260506144535 | 58 | 72 | 5.2 | 14.8 | 0.00 | 0.00 | 0.00 | 90 | 1010.7 |
| 20260506143034 | 58 | 94 | 7.8 | 17.4 | 0.00 | 0.00 | 0.00 | 89 | 1011.0 |
| 20260506141529 | 58 | 68 | 9.6 | 18.2 | 0.00 | 0.00 | 0.00 | 89 | 1011.0 |
| 20260506140034 | 58 | 117 | 6.1 | 20.0 | 0.00 | 0.00 | 0.00 | 90 | 1011.2 |
| 20260506134529 | 58 | 96 | 9.6 | 19.1 | 0.00 | 0.00 | 0.00 | 89 | 1011.2 |
| 20260506133028 | 57 | 68 | 7.8 | 18.2 | 0.00 | 0.00 | 0.00 | 90 | 1011.2 |
| 20260506131535 | 57 | 71 | 3.5 | 16.5 | 0.00 | 0.00 | 0.00 | 92 | 1011.1 |
| 20260506130026 | 57 | 117 | 7.8 | 14.8 | 0.00 | 0.00 | 0.00 | 91 | 1011.0 |
| 20260506124557 | 57 | 97 | 5.2 | 18.2 | 0.00 | 0.00 | 0.00 | 91 | 1011.1 |
| 20260506123111 | 57 | 83 | 7.0 | 18.2 | 0.00 | 0.00 | 0.00 | 91 | 1011.3 |
| 20260506121605 | 57 | 90 | 8.7 | 16.5 | 0.00 | 0.00 | 0.00 | 91 | 1011.5 |
| 20260506120052 | 57 | 63 | 10.4 | 17.4 | 0.00 | 0.00 | 0.00 | 91 | 1011.3 |
| 20260506114552 | 57 | 82 | 6.1 | 14.8 | 0.00 | 0.00 | 0.00 | 92 | 1011.2 |
| 20260506113051 | 56 | 82 | 6.1 | 18.2 | 0.00 | 0.00 | 0.00 | 93 | 1011.1 |
| 20260506111526 | 56 | 94 | 3.5 | 16.5 | 0.00 | 0.00 | 0.00 | 94 | 1011.2 |
| 20260506110020 | 56 | 86 | 4.3 | 13.0 | 0.00 | 0.00 | 0.00 | 93 | 1011.1 |
| 20260506104517 | 56 | 60 | 5.2 | 13.9 | 0.00 | 0.00 | 0.00 | 94 | 1011.1 |
| 20260506103016 | 56 | 66 | 6.1 | 14.8 | 0.00 | 0.00 | 0.00 | 94 | 1011.0 |
| 20260506101516 | 55 | 60 | 6.1 | 18.2 | 0.00 | 0.00 | 0.00 | 94 | 1011.1 |
| 20260506100014 | 55 | 79 | 5.2 | 15.6 | 0.00 | 0.00 | 0.00 | 94 | 1010.9 |
| 20260506094543 | 55 | 79 | 3.5 | 15.6 | 0.00 | 0.00 | 0.00 | 94 | 1010.9 |
| 20260506093044 | 56 | 86 | 7.8 | 16.5 | 0.00 | 0.00 | 0.00 | 94 | 1011.0 |
| 20260506091511 | 56 | 88 | 8.7 | 17.4 | 0.00 | 0.00 | 0.00 | 94 | 1010.9 |
| 20260506090009 | 56 | 105 | 6.1 | 21.7 | 0.00 | 0.00 | 0.00 | 94 | 1010.9 |
| 20260506084544 | 56 | 68 | 9.6 | 20.0 | 0.00 | 0.00 | 0.00 | 94 | 1011.0 |
| 20260506083038 | 56 | 110 | 6.1 | 15.6 | 0.00 | 0.00 | 0.00 | 94 | 1011.1 |
| 20260506081530 | 56 | 105 | 7.0 | 15.6 | 0.00 | 0.00 | 0.00 | 93 | 1011.2 |
| 20260506073027 | 56 | 95 | 7.0 | 16.5 | 0.00 | 0.00 | 0.00 | 92 | 1011.7 |
| 20260506071524 | 56 | 96 | 5.2 | 13.0 | 0.00 | 0.00 | 0.00 | 91 | 1011.8 |
| 20260506061515 | 57 | 109 | 8.7 | 18.2 | 0.00 | 0.00 | 0.00 | 91 | 1011.4 |
| 20260506044513 | 58 | 96 | 12.2 | 26.1 | 0.00 | 0.00 | 0.00 | 88 | 1011.5 |
| 20260506043005 | 58 | 109 | 8.7 | 20.9 | 0.00 | 0.00 | 0.00 | 88 | 1011.7 |
| 20260506041506 | 57 | 105 | 7.8 | 16.5 | 0.00 | 0.00 | 0.00 | 89 | 1011.8 |
| 20260506041504 | 57 | 64 | 7.8 | 16.5 | 0.00 | 0.00 | 0.00 | 89 | 1011.8 |
| 20260506040001 | 57 | 107 | 7.8 | 16.5 | 0.00 | 0.00 | 0.00 | 89 | 1011.8 |
| 20260506034603 | 57 | 77 | 7.8 | 19.1 | 0.00 | 0.00 | 0.00 | 89 | 1012.0 |
| 20260506033059 | 57 | 75 | 8.7 | 17.4 | 0.00 | 0.00 | 0.00 | 89 | 1012.0 |
| 20260506031558 | 57 | 117 | 7.0 | 20.0 | 0.00 | 0.00 | 0.00 | 89 | 1011.9 |
| 20260506030057 | 56 | 128 | 5.2 | 13.0 | 0.00 | 0.00 | 0.00 | 89 | 1012.1 |
| 20260506024606 | 57 | 103 | 7.8 | 15.6 | 0.00 | 0.00 | 0.00 | 89 | 1012.0 |
| 20260506023108 | 57 | 104 | 7.0 | 16.5 | 0.00 | 0.00 | 0.00 | 89 | 1012.0 |
| 20260506021553 | 57 | 110 | 6.1 | 16.5 | 0.00 | 0.00 | 0.00 | 89 | 1012.0 |
| 20260506020054 | 57 | 81 | 5.2 | 15.6 | 0.00 | 0.00 | 0.00 | 88 | 1011.9 |
| 20260506014548 | 57 | 65 | 4.3 | 15.6 | 0.00 | 0.00 | 0.00 | 88 | 1011.8 |
| 20260506013054 | 57 | 52 | 7.8 | 18.2 | 0.00 | 0.00 | 0.00 | 87 | 1011.7 |
| 20260506011547 | 57 | 103 | 7.8 | 17.4 | 0.00 | 0.00 | 0.00 | 87 | 1011.5 |
| 20260506010040 | 57 | 40 | 7.8 | 20.9 | 0.00 | 0.00 | 0.00 | 85 | 1011.4 |
| 20260506004539 | 58 | 80 | 9.6 | 24.3 | 0.00 | 0.00 | 0.00 | 84 | 1011.0 |
| 20260506003037 | 58 | 94 | 10.4 | 26.9 | 0.00 | 0.00 | 0.00 | 84 | 1010.7 |
| 20260506001537 | 58 | 53 | 8.7 | 26.1 | 0.00 | 0.00 | 0.00 | 83 | 1010.6 |
| 20260506000034 | 58 | 50 | 13.0 | 22.6 | 0.00 | 0.00 | 0.00 | 84 | 1010.4 |
| 20260505234533 | 58 | 115 | 11.3 | 25.2 | 0.00 | 0.00 | 0.00 | 85 | 1010.1 |
| 20260505233030 | 58 | 77 | 13.9 | 24.3 | 0.00 | 0.00 | 0.00 | 84 | 1009.9 |
| 20260505231529 | 58 | 108 | 13.9 | 22.6 | 0.00 | 0.00 | 0.00 | 84 | 1009.8 |
| 20260505230121 | 58 | 39 | 11.3 | 20.0 | 0.00 | 0.00 | 0.00 | 84 | 1009.8 |
| 20260505224556 | 59 | 94 | 11.3 | 20.0 | 0.00 | 0.00 | 0.00 | 84 | 1009.6 |
| 20260505223057 | 59 | 52 | 13.0 | 25.2 | 0.00 | 0.00 | 0.00 | 83 | 1009.6 |
| 20260505221557 | 59 | 55 | 13.9 | 26.1 | 0.00 | 0.00 | 0.00 | 83 | 1009.4 |
| 20260505220055 | 58 | 103 | 11.3 | 26.9 | 0.00 | 0.00 | 0.00 | 84 | 1009.4 |
| 20260505214548 | 59 | 122 | 13.0 | 23.5 | 0.00 | 0.00 | 0.00 | 83 | 1009.2 |
| 20260505213045 | 59 | 77 | 13.0 | 22.6 | 0.00 | 0.00 | 0.00 | 82 | 1009.0 |